Terminal Aerodrome Forecast
Issued by NWS Spokane, WA

Home | Current Version | Previous Version | Text Only | Print | Product List | Glossary On
Versions: 1 2 3 4 5 6 7 8 9 10 11 12 13 14 15 16 17 18 19 20 21 22 23 24 25 26 27 28 29 30 31 32 33
000
FTUS46 KOTX 300524
TAFEAT
TAF
KEAT 300524Z 3006/0106 31009KT P6SM SCT080 OVC100
     FM300800 31009KT P6SM SCT070 SCT200
     FM301700 30015G23KT P6SM SCT200
     FM302000 30023G32KT P6SM SCT200
     FM010400 30014KT P6SM FEW200=

USA.gov is the U.S. government's official web portal to all federal, state and local government web resources and services.